createdAt,value
2022-08-03T00:00:48.229Z,97053.47
2022-08-03T00:06:09.349Z,97056.97
2022-08-03T00:11:30.145Z,97054.72
2022-08-03T00:16:50.764Z,97057.75
2022-08-03T00:22:11.366Z,97050.81
2022-08-03T00:27:32.651Z,97036.91
2022-08-03T00:32:54.530Z,97051.41
2022-08-03T00:38:15.905Z,97042.22
2022-08-03T00:43:36.738Z,97048.50
2022-08-03T00:48:57.402Z,97049.75
2022-08-03T00:54:18.654Z,97046.47
2022-08-03T00:59:39.749Z,97041.34
2022-08-03T01:05:00.413Z,97052.00
2022-08-03T01:10:52.296Z,97045.22
2022-08-03T01:16:20.429Z,97056.34
2022-08-03T01:21:49.490Z,97059.16
2022-08-03T01:27:20.354Z,97054.25
2022-08-03T01:32:58.360Z,97052.16
2022-08-03T01:38:26.175Z,97050.31
2022-08-03T01:44:27.817Z,97048.16
2022-08-03T01:49:35.863Z,97051.19
2022-08-03T01:54:58.670Z,97045.84
2022-08-03T02:00:19.811Z,97049.25
2022-08-03T02:05:41.768Z,97049.84
2022-08-03T02:11:03.006Z,97047.69
2022-08-03T02:16:27.719Z,97037.91
2022-08-03T02:21:56.285Z,97046.06
2022-08-03T02:27:24.511Z,97033.47
2022-08-03T02:32:54.829Z,97040.72
2022-08-03T02:38:18.554Z,97043.31
2022-08-03T02:44:05.522Z,97038.78
2022-08-03T02:49:41.097Z,97044.03
2022-08-03T02:55:05.633Z,97044.78
2022-08-03T03:00:28.080Z,97041.53
2022-08-03T03:05:55.449Z,97044.47
2022-08-03T03:11:21.030Z,97041.19
2022-08-03T03:16:44.572Z,97042.47
2022-08-03T03:22:11.575Z,97045.22
2022-08-03T03:27:34.100Z,97044.59
2022-08-03T03:32:55.919Z,97047.63
2022-08-03T03:38:16.595Z,97049.38
2022-08-03T03:43:37.308Z,97047.69
2022-08-03T03:48:58.612Z,97053.34
2022-08-03T03:54:19.566Z,97056.19
2022-08-03T03:59:44.028Z,97059.47
2022-08-03T04:05:23.593Z,97058.00
2022-08-03T04:10:59.646Z,97060.97
2022-08-03T04:16:26.663Z,97063.31
2022-08-03T04:21:50.018Z,97062.69
2022-08-03T04:27:14.158Z,97069.53
2022-08-03T04:32:41.864Z,97072.06
2022-08-03T04:38:07.765Z,97078.84
2022-08-03T04:43:32.823Z,97069.06
2022-08-03T04:48:54.568Z,97070.00
2022-08-03T04:54:19.271Z,97074.78
2022-08-03T04:59:40.934Z,97084.56
2022-08-03T05:05:01.865Z,97081.91
2022-08-03T05:10:22.429Z,97087.81
2022-08-03T05:15:43.410Z,97090.84
2022-08-03T05:21:05.138Z,97090.66
2022-08-03T05:26:26.046Z,97094.56
2022-08-03T05:31:47.601Z,97093.91
2022-08-03T05:37:09.434Z,97090.63
2022-08-03T05:42:30.514Z,97092.53
2022-08-03T05:47:51.442Z,97086.72
2022-08-03T05:53:12.608Z,97090.22
2022-08-03T05:58:33.156Z,97092.19
2022-08-03T06:03:54.521Z,97098.91
2022-08-03T06:09:15.411Z,97096.41
2022-08-03T06:14:36.366Z,97095.13
2022-08-03T06:19:57.050Z,97096.44
2022-08-03T06:25:17.860Z,97098.72
2022-08-03T06:30:42.420Z,97087.81
2022-08-03T06:36:03.204Z,97092.31
2022-08-03T06:41:23.922Z,97105.56
2022-08-03T06:46:44.573Z,97102.66
2022-08-03T06:52:07.052Z,97105.69
2022-08-03T06:57:27.883Z,97106.19
2022-08-03T07:02:49.292Z,97113.31
2022-08-03T07:08:14.149Z,97111.00
2022-08-03T07:13:34.886Z,97110.34
2022-08-03T07:18:55.429Z,97116.72
2022-08-03T07:24:16.041Z,97118.84
2022-08-03T07:29:37.609Z,97114.75
2022-08-03T07:35:00.825Z,97117.66
2022-08-03T07:40:22.579Z,97124.97
2022-08-03T07:45:43.260Z,97123.59
2022-08-03T07:51:05.711Z,97117.50
2022-08-03T07:56:26.980Z,97122.88
2022-08-03T08:01:47.915Z,97118.00
2022-08-03T08:07:08.532Z,97128.25
2022-08-03T08:12:30.884Z,97117.28
2022-08-03T08:17:54.081Z,97119.13
2022-08-03T08:23:41.660Z,97115.81
2022-08-03T08:28:55.644Z,97119.53
2022-08-03T08:34:16.737Z,97121.84
2022-08-03T08:39:37.316Z,97120.91
2022-08-03T08:44:58.049Z,97121.47
2022-08-03T08:50:29.610Z,97121.38
2022-08-03T08:55:58.544Z,97103.22
2022-08-03T09:01:21.951Z,97120.41
2022-08-03T09:06:53.745Z,97109.38
2022-08-03T09:12:40.935Z,97102.50
2022-08-03T09:18:04.265Z,97111.63
2022-08-03T09:23:51.767Z,97111.59
2022-08-03T09:29:15.437Z,97110.41
2022-08-03T09:34:36.669Z,97111.78
2022-08-03T09:39:57.558Z,97111.13
2022-08-03T09:45:28.082Z,97107.34
2022-08-03T09:51:12.835Z,97097.31
2022-08-03T09:56:46.960Z,97101.66
2022-08-03T10:02:21.752Z,97096.88
2022-08-03T10:07:46.243Z,97095.75
2022-08-03T10:13:07.124Z,97093.22
2022-08-03T10:18:27.695Z,97088.03
2022-08-03T10:23:51.242Z,97084.63
2022-08-03T10:29:20.316Z,97086.09
2022-08-03T10:34:44.442Z,97083.47
2022-08-03T10:40:08.328Z,97074.94
2022-08-03T10:45:28.807Z,97074.00
2022-08-03T10:50:50.112Z,97069.81
2022-08-03T10:56:51.231Z,97062.28
2022-08-03T11:02:12.587Z,97068.53
2022-08-03T11:07:33.587Z,97063.66
2022-08-03T11:13:07.207Z,97067.50
2022-08-03T11:18:28.775Z,97059.81
2022-08-03T11:24:03.535Z,97060.25
2022-08-03T11:29:29.071Z,97058.31
2022-08-03T11:35:09.425Z,97061.69
2022-08-03T11:40:39.375Z,97062.84
2022-08-03T11:46:00.207Z,97049.03
2022-08-03T11:51:23.745Z,97054.00
2022-08-03T11:56:47.649Z,97051.16
2022-08-03T12:02:09.910Z,97054.53
2022-08-03T12:08:02.264Z,97041.19
2022-08-03T12:14:35.601Z,97039.19
2022-08-03T12:19:10.810Z,97038.22
2022-08-03T12:24:41.704Z,97034.22
2022-08-03T12:30:03.720Z,97030.25
2022-08-03T12:35:25.166Z,97032.53
2022-08-03T12:40:46.873Z,97020.19
2022-08-03T12:46:12.563Z,97030.16
2022-08-03T12:51:39.048Z,97024.34
2022-08-03T12:57:19.002Z,97014.75
2022-08-03T13:02:39.696Z,97010.84
2022-08-03T13:08:22.042Z,97011.41
2022-08-03T13:13:42.585Z,97007.09
2022-08-03T13:19:03.256Z,97017.56
2022-08-03T13:24:23.971Z,97021.56
2022-08-03T13:29:44.989Z,97010.41
2022-08-03T13:35:06.809Z,97006.41
2022-08-03T13:40:30.265Z,97000.41
2022-08-03T13:45:54.830Z,96996.44
2022-08-03T13:51:22.400Z,96993.19
2022-08-03T13:56:50.117Z,96993.47
2022-08-03T14:02:10.897Z,96988.41
2022-08-03T14:07:31.684Z,96986.34
2022-08-03T14:12:52.429Z,96972.88
2022-08-03T14:18:16.013Z,96975.00
2022-08-03T14:23:49.040Z,96974.44
2022-08-03T14:29:09.709Z,96978.19
2022-08-03T14:34:30.361Z,96969.94
2022-08-03T14:40:00.478Z,96963.84
2022-08-03T14:45:21.952Z,96955.78
2022-08-03T14:50:48.369Z,96957.41
2022-08-03T14:56:11.793Z,96951.47
2022-08-03T15:02:02.903Z,96947.91
2022-08-03T15:07:13.487Z,96949.97
2022-08-03T15:12:34.486Z,96948.53
2022-08-03T15:18:00.280Z,96945.81
2022-08-03T15:23:22.713Z,96942.59
2022-08-03T15:28:43.786Z,96933.19
2022-08-03T15:34:04.455Z,96932.28
2022-08-03T15:39:25.224Z,96929.59
2022-08-03T15:44:45.650Z,96933.28
2022-08-03T15:50:09.640Z,96933.28
2022-08-03T15:55:31.288Z,96934.34
2022-08-03T16:00:52.080Z,96936.66
2022-08-03T16:06:13.660Z,96929.06
2022-08-03T16:11:34.498Z,96923.69
2022-08-03T16:16:55.380Z,96932.75
2022-08-03T16:22:17.488Z,96923.84
2022-08-03T16:28:07.235Z,96918.22
2022-08-03T16:33:21.456Z,96907.38
2022-08-03T16:38:42.205Z,96902.59
2022-08-03T16:44:06.693Z,96912.03
2022-08-03T16:49:53.713Z,96911.84
2022-08-03T16:55:15.647Z,96916.19
2022-08-03T17:00:41.211Z,96921.47
2022-08-03T17:06:02.887Z,96921.13
2022-08-03T17:11:23.450Z,96923.97
2022-08-03T17:16:52.690Z,96922.53
2022-08-03T17:22:18.770Z,96927.22
2022-08-03T17:28:50.815Z,96928.09
2022-08-03T17:33:22.611Z,96927.22
2022-08-03T17:38:43.763Z,96931.09
2022-08-03T17:44:14.981Z,96933.63
2022-08-03T17:49:40.110Z,96931.44
2022-08-03T17:55:55.980Z,96929.22
2022-08-03T18:02:00.018Z,96930.81
2022-08-03T18:06:55.571Z,96927.84
2022-08-03T18:12:28.974Z,96933.34
2022-08-03T18:17:58.055Z,96933.47
2022-08-03T18:23:36.898Z,96937.34
2022-08-03T18:28:58.897Z,96942.53
2022-08-03T18:34:33.241Z,96951.13
2022-08-03T18:39:57.854Z,96945.00
2022-08-03T18:45:57.204Z,96944.34
2022-08-03T18:51:06.804Z,96944.09
2022-08-03T18:56:54.377Z,96949.44
2022-08-03T19:02:41.314Z,96951.88
2022-08-03T19:08:18.026Z,96955.56
2022-08-03T19:13:50.547Z,96957.16
2022-08-03T19:19:14.602Z,96949.47
2022-08-03T19:24:38.889Z,96950.63
2022-08-03T19:30:04.083Z,96954.66
2022-08-03T19:35:51.320Z,96949.63
2022-08-03T19:41:13.991Z,96950.56
2022-08-03T19:46:49.394Z,96952.50
2022-08-03T19:52:11.497Z,96954.59
2022-08-03T19:57:35.609Z,96954.63
2022-08-03T20:02:57.632Z,96955.91
2022-08-03T20:08:20.632Z,96962.97
2022-08-03T20:13:44.858Z,96949.13
2022-08-03T20:19:14.343Z,96953.75
2022-08-03T20:24:36.739Z,96960.19
2022-08-03T20:30:06.288Z,96955.06
2022-08-03T20:35:29.149Z,96965.38
2022-08-03T20:40:50.411Z,96959.09
2022-08-03T20:46:31.946Z,96956.06
2022-08-03T20:51:53.602Z,96956.88
2022-08-03T20:57:16.596Z,96959.00
2022-08-03T21:02:40.093Z,96948.72
2022-08-03T21:08:06.928Z,96951.03
2022-08-03T21:13:39.563Z,96956.13
2022-08-03T21:19:03.452Z,96959.69
2022-08-03T21:24:26.963Z,96961.81
2022-08-03T21:29:53.088Z,96958.72
2022-08-03T21:35:15.656Z,96951.34
2022-08-03T21:40:37.144Z,96954.44
2022-08-03T21:46:04.000Z,96951.41
2022-08-03T21:51:25.945Z,96948.25
2022-08-03T21:56:48.313Z,96948.16
2022-08-03T22:02:20.066Z,96944.38
2022-08-03T22:07:46.411Z,96948.56
2022-08-03T22:13:07.166Z,96951.44
2022-08-03T22:18:28.611Z,96947.81
2022-08-03T22:23:54.024Z,96949.44
2022-08-03T22:29:14.919Z,96951.75
2022-08-03T22:34:37.226Z,96951.81
2022-08-03T22:39:59.159Z,96942.97
2022-08-03T22:46:06.876Z,96956.72
2022-08-03T22:51:02.166Z,96951.81
2022-08-03T22:56:23.237Z,96959.63
2022-08-03T23:01:47.203Z,96950.88
2022-08-03T23:07:13.013Z,96950.06
2022-08-03T23:12:36.238Z,96953.63
2022-08-03T23:18:03.240Z,96953.53
2022-08-03T23:23:23.871Z,96958.72
2022-08-03T23:28:48.549Z,96964.31
2022-08-03T23:34:31.098Z,96964.56
2022-08-03T23:39:53.387Z,96971.28
2022-08-03T23:45:17.619Z,96976.59
2022-08-03T23:50:46.520Z,96968.44
2022-08-03T23:56:19.107Z,96962.94
